createdAt,value
2023-11-23T00:10:42.476Z,11.60
2023-11-23T00:25:45.737Z,11.42
2023-11-23T00:40:47.426Z,11.42
2023-11-23T00:55:57.892Z,11.59
2023-11-23T01:11:00.782Z,11.32
2023-11-23T01:26:02.468Z,11.37
2023-11-23T01:41:04.537Z,11.25
2023-11-23T01:56:09.330Z,11.22
2023-11-23T02:11:11.783Z,11.01
2023-11-23T02:26:13.455Z,11.33
2023-11-23T02:41:15.186Z,10.79
2023-11-23T02:56:16.876Z,10.46
2023-11-23T03:11:22.795Z,10.27
2023-11-23T03:26:24.570Z,10.09
2023-11-23T03:41:26.272Z,9.57
2023-11-23T03:56:27.957Z,9.57
2023-11-23T04:11:29.669Z,10.08
2023-11-23T04:26:32.842Z,9.83
2023-11-23T04:41:34.575Z,10.04
2023-11-23T04:56:36.728Z,9.16
2023-11-23T05:11:38.755Z,9.49
2023-11-23T05:26:40.431Z,9.01
2023-11-23T05:41:42.148Z,9.27
2023-11-23T05:56:45.109Z,9.27
2023-11-23T06:11:47.256Z,9.49
2023-11-23T06:26:49.397Z,9.92
2023-11-23T06:41:55.229Z,10.13
2023-11-23T06:56:58.552Z,9.84
2023-11-23T07:12:00.512Z,10.22
2023-11-23T07:27:02.355Z,10.34
2023-11-23T07:42:04.741Z,10.38
2023-11-23T07:57:06.489Z,10.52
2023-11-23T08:12:11.202Z,10.74
2023-11-23T08:27:13.265Z,10.99
2023-11-23T08:42:16.417Z,10.77
2023-11-23T08:57:18.297Z,10.88
2023-11-23T09:12:20.093Z,10.98
2023-11-23T09:27:23.655Z,10.92
2023-11-23T09:42:29.245Z,10.32
2023-11-23T09:57:31.609Z,10.72
2023-11-23T10:12:36.361Z,11.01
2023-11-23T10:27:39.074Z,10.89
2023-11-23T10:42:41.232Z,11.15
2023-11-23T10:57:47.455Z,10.76
2023-11-23T11:12:49.378Z,10.78
2023-11-23T11:27:51.514Z,10.62
2023-11-23T11:42:57.159Z,10.28
2023-11-23T11:57:58.816Z,10.89
2023-11-23T12:13:01.706Z,10.95
2023-11-23T12:28:08.222Z,11.10
2023-11-23T12:43:11.625Z,11.33
2023-11-23T12:58:14.893Z,11.39
2023-11-23T13:13:17.813Z,11.42
2023-11-23T13:28:19.754Z,11.08
2023-11-23T13:43:21.658Z,10.79
2023-11-23T13:58:23.859Z,10.66
2023-11-23T14:13:26.617Z,10.99
2023-11-23T14:28:28.321Z,11.15
2023-11-23T14:43:30.064Z,10.79
2023-11-23T14:58:32.570Z,11.25
2023-11-23T15:13:38.505Z,11.08
2023-11-23T15:28:40.976Z,11.04
2023-11-23T15:43:42.745Z,10.51
2023-11-23T15:58:45.178Z,10.62
2023-11-23T16:13:47.126Z,11.01
2023-11-23T16:28:48.937Z,10.97
2023-11-23T16:43:50.751Z,10.93
2023-11-23T16:58:52.604Z,11.06
2023-11-23T17:13:54.322Z,10.78
2023-11-23T17:28:57.676Z,10.72
2023-11-23T17:43:59.449Z,10.27
2023-11-23T17:59:14.379Z,9.71
2023-11-23T18:14:25.821Z,9.46
2023-11-23T18:29:29.137Z,8.65
2023-11-23T18:44:30.889Z,8.84
2023-11-23T18:59:32.548Z,8.71
2023-11-23T19:14:34.255Z,8.73
2023-11-23T19:29:42.827Z,8.98
2023-11-23T19:44:50.008Z,9.25
2023-11-23T19:59:53.017Z,9.66
2023-11-23T20:14:55.030Z,9.30
2023-11-23T20:29:56.689Z,9.82
2023-11-23T20:44:58.416Z,9.12
2023-11-23T21:00:01.131Z,8.92
2023-11-23T21:15:05.152Z,9.25
2023-11-23T21:30:08.901Z,8.65
2023-11-23T21:45:10.728Z,8.42
2023-11-23T22:00:13.336Z,8.63
2023-11-23T22:15:15.170Z,8.73
2023-11-23T22:30:17.137Z,8.73
2023-11-23T22:45:19.271Z,8.36
2023-11-23T23:00:29.248Z,8.44
2023-11-23T23:15:31.214Z,8.85
2023-11-23T23:30:33.234Z,8.95
2023-11-23T23:45:34.903Z,8.61
